Aviation Digital Data Service (ADDS)

Output produced by METARs form (1211 UTC 18 June 2019)
found at http://www.aviationweather.gov/metar/data/
 
METAR text: KSEA 181153Z 22007KT 3SM -DZ BR OVC008 14/12 A3017 RMK AO2 DZB50 SLP220 P0000 60000 T01440122 10183 20144 53003
Conditions at: KSEA (SEATTLE/METRO , WA, US) observed 1153 UTC 18 June 2019
Temperature: 14.4°C (58°F)
Dewpoint: 12.2°C (54°F) [RH = 87%]
Pressure (altimeter): 30.17 inches Hg (1021.8 mb)
[Sea-level pressure: 1022.0 mb]
Winds: from the SW (220 degrees) at 8 MPH (7 knots; 3.6 m/s)
Visibility: 3 miles ( 5 km)
Ceiling: 800 feet AGL
Clouds: overcast cloud deck at 800 feet AGL
Weather: -DZ BR  (light drizzle, mist)

METAR text: KSEA 181130Z 22004KT 10SM BKN008 OVC012 14/12 A3017 RMK AO2 T01440117
Conditions at: KSEA (SEATTLE/METRO , WA, US) observed 1130 UTC 18 June 2019
Temperature: 14.4°C (58°F)
Dewpoint: 11.7°C (53°F) [RH = 84%]
Pressure (altimeter): 30.17 inches Hg (1021.8 mb)
Winds: from the SW (220 degrees) at 5 MPH (4 knots; 2.1 m/s)
Visibility: 10 or more miles (16+ km)
Ceiling: 800 feet AGL
Clouds: broken clouds at 800 feet AGL
overcast cloud deck at 1200 feet AGL
Weather: no significant weather observed at this time

METAR text: KSEA 181100Z 21007KT 10SM BKN012 OVC017 15/12 A3016 RMK AO2 T01500117
Conditions at: KSEA (SEATTLE/METRO , WA, US) observed 1100 UTC 18 June 2019
Temperature: 15.0°C (59°F)
Dewpoint: 11.7°C (53°F) [RH = 81%]
Pressure (altimeter): 30.16 inches Hg (1021.4 mb)
Winds: from the SSW (210 degrees) at 8 MPH (7 knots; 3.6 m/s)
Visibility: 10 or more miles (16+ km)
Ceiling: 1200 feet AGL
Clouds: broken clouds at 1200 feet AGL
overcast cloud deck at 1700 feet AGL
Weather: no significant weather observed at this time

METAR text: KSEA 181053Z 21007KT 10SM BKN017 BKN025 OVC055 15/12 A3016 RMK AO2 SLP216 T01500117
Conditions at: KSEA (SEATTLE/METRO , WA, US) observed 1053 UTC 18 June 2019
Temperature: 15.0°C (59°F)
Dewpoint: 11.7°C (53°F) [RH = 81%]
Pressure (altimeter): 30.16 inches Hg (1021.4 mb)
[Sea-level pressure: 1021.6 mb]
Winds: from the SSW (210 degrees) at 8 MPH (7 knots; 3.6 m/s)
Visibility: 10 or more miles (16+ km)
Ceiling: 1700 feet AGL
Clouds: broken clouds at 1700 feet AGL
broken clouds at 2500 feet AGL
overcast cloud deck at 5500 feet AGL
Weather: no significant weather observed at this time

METAR text: KSEA 180953Z 21007KT 10SM SCT018 BKN025 BKN055 16/12 A3015 RMK AO2 SLP214 T01560117
Conditions at: KSEA (SEATTLE/METRO , WA, US) observed 0953 UTC 18 June 2019
Temperature: 15.6°C (60°F)
Dewpoint: 11.7°C (53°F) [RH = 78%]
Pressure (altimeter): 30.15 inches Hg (1021.1 mb)
[Sea-level pressure: 1021.4 mb]
Winds: from the SSW (210 degrees) at 8 MPH (7 knots; 3.6 m/s)
Visibility: 10 or more miles (16+ km)
Ceiling: 2500 feet AGL
Clouds: scattered clouds at 1800 feet AGL
broken clouds at 2500 feet AGL
broken clouds at 5500 feet AGL
Weather: no significant weather observed at this time

METAR text: KSEA 180853Z 26005KT 10SM SCT015 BKN026 OVC055 16/12 A3016 RMK AO2 SLP216 T01610117 53002
Conditions at: KSEA (SEATTLE/METRO , WA, US) observed 0853 UTC 18 June 2019
Temperature: 16.1°C (61°F)
Dewpoint: 11.7°C (53°F) [RH = 75%]
Pressure (altimeter): 30.16 inches Hg (1021.4 mb)
[Sea-level pressure: 1021.6 mb]
Winds: from the W (260 degrees) at 6 MPH (5 knots; 2.6 m/s)
Visibility: 10 or more miles (16+ km)
Ceiling: 2600 feet AGL
Clouds: scattered clouds at 1500 feet AGL
broken clouds at 2600 feet AGL
overcast cloud deck at 5500 feet AGL
Weather: no significant weather observed at this time

METAR text: KSEA 180753Z 20008KT 10SM SCT047 BKN055 16/12 A3015 RMK AO2 SLP215 T01610122 402440133
Conditions at: KSEA (SEATTLE/METRO , WA, US) observed 0753 UTC 18 June 2019
Temperature: 16.1°C (61°F)
Dewpoint: 12.2°C (54°F) [RH = 78%]
Pressure (altimeter): 30.15 inches Hg (1021.1 mb)
[Sea-level pressure: 1021.5 mb]
Winds: from the SSW (200 degrees) at 9 MPH (8 knots; 4.1 m/s)
Visibility: 10 or more miles (16+ km)
Ceiling: 5500 feet AGL
Clouds: scattered clouds at 4700 feet AGL
broken clouds at 5500 feet AGL
Weather: no significant weather observed at this time

METAR text: KSEA 180653Z 20006KT 10SM BKN050 17/13 A3015 RMK AO2 SLP216 T01670128
Conditions at: KSEA (SEATTLE/METRO , WA, US) observed 0653 UTC 18 June 2019
Temperature: 16.7°C (62°F)
Dewpoint: 12.8°C (55°F) [RH = 78%]
Pressure (altimeter): 30.15 inches Hg (1021.1 mb)
[Sea-level pressure: 1021.6 mb]
Winds: from the SSW (200 degrees) at 7 MPH (6 knots; 3.1 m/s)
Visibility: 10 or more miles (16+ km)
Ceiling: 5000 feet AGL
Clouds: broken clouds at 5000 feet AGL
Weather: no significant weather observed at this time

METAR text: KSEA 180553Z 21007KT 10SM BKN049 18/13 A3015 RMK AO2 SLP215 T01830128 10244 20183 53008
Conditions at: KSEA (SEATTLE/METRO , WA, US) observed 0553 UTC 18 June 2019
Temperature: 18.3°C (65°F)
Dewpoint: 12.8°C (55°F) [RH = 70%]
Pressure (altimeter): 30.15 inches Hg (1021.1 mb)
[Sea-level pressure: 1021.5 mb]
Winds: from the SSW (210 degrees) at 8 MPH (7 knots; 3.6 m/s)
Visibility: 10 or more miles (16+ km)
Ceiling: 4900 feet AGL
Clouds: broken clouds at 4900 feet AGL
Weather: no significant weather observed at this time

METAR text: KSEA 180453Z 19008KT 10SM BKN043 19/13 A3014 RMK AO2 SLP210 T01890133
Conditions at: KSEA (SEATTLE/METRO , WA, US) observed 0453 UTC 18 June 2019
Temperature: 18.9°C (66°F)
Dewpoint: 13.3°C (56°F) [RH = 70%]
Pressure (altimeter): 30.14 inches Hg (1020.7 mb)
[Sea-level pressure: 1021.0 mb]
Winds: from the S (190 degrees) at 9 MPH (8 knots; 4.1 m/s)
Visibility: 10 or more miles (16+ km)
Ceiling: 4300 feet AGL
Clouds: broken clouds at 4300 feet AGL
Weather: no significant weather observed at this time

METAR text: KSEA 180353Z 21006KT 10SM BKN044 BKN250 23/13 A3012 RMK AO2 SLP205 T02280133
Conditions at: KSEA (SEATTLE/METRO , WA, US) observed 0353 UTC 18 June 2019
Temperature: 22.8°C (73°F)
Dewpoint: 13.3°C (56°F) [RH = 55%]
Pressure (altimeter): 30.12 inches Hg (1020.1 mb)
[Sea-level pressure: 1020.5 mb]
Winds: from the SSW (210 degrees) at 7 MPH (6 knots; 3.1 m/s)
Visibility: 10 or more miles (16+ km)
Ceiling: 4400 feet AGL
Clouds: broken clouds at 4400 feet AGL
broken clouds at 25000 feet AGL
Weather: no significant weather observed at this time

METAR text: KSEA 180253Z 22005KT 10SM SCT060 BKN250 23/13 A3013 RMK AO2 SLP206 T02280128 56004
Conditions at: KSEA (SEATTLE/METRO , WA, US) observed 0253 UTC 18 June 2019
Temperature: 22.8°C (73°F)
Dewpoint: 12.8°C (55°F) [RH = 53%]
Pressure (altimeter): 30.13 inches Hg (1020.4 mb)
[Sea-level pressure: 1020.6 mb]
Winds: from the SW (220 degrees) at 6 MPH (5 knots; 2.6 m/s)
Visibility: 10 or more miles (16+ km)
Ceiling: 25000 feet AGL
Clouds: scattered clouds at 6000 feet AGL
broken clouds at 25000 feet AGL
Weather: no significant weather observed at this time

METAR text: KSEA 180153Z 16007KT 10SM SCT065 BKN250 23/12 A3013 RMK AO2 SLP206 T02330122
Conditions at: KSEA (SEATTLE/METRO , WA, US) observed 0153 UTC 18 June 2019
Temperature: 23.3°C (74°F)
Dewpoint: 12.2°C (54°F) [RH = 50%]
Pressure (altimeter): 30.13 inches Hg (1020.4 mb)
[Sea-level pressure: 1020.6 mb]
Winds: from the SSE (160 degrees) at 8 MPH (7 knots; 3.6 m/s)
Visibility: 10 or more miles (16+ km)
Ceiling: 25000 feet AGL
Clouds: scattered clouds at 6500 feet AGL
broken clouds at 25000 feet AGL
Weather: no significant weather observed at this time

METAR text: KSEA 180053Z 14003KT 10SM FEW040 BKN250 23/11 A3013 RMK AO2 SLP208 T02330111
Conditions at: KSEA (SEATTLE/METRO , WA, US) observed 0053 UTC 18 June 2019
Temperature: 23.3°C (74°F)
Dewpoint: 11.1°C (52°F) [RH = 46%]
Pressure (altimeter): 30.13 inches Hg (1020.4 mb)
[Sea-level pressure: 1020.8 mb]
Winds: from the SE (140 degrees) at 3 MPH (3 knots; 1.5 m/s)
Visibility: 10 or more miles (16+ km)
Ceiling: 25000 feet AGL
Clouds: few clouds at 4000 feet AGL
broken clouds at 25000 feet AGL
Weather: no significant weather observed at this time

METAR text: KSEA 172353Z 22005KT 10SM FEW040 BKN250 23/11 A3014 RMK AO2 SLP210 T02280111 10233 20156 56008
Conditions at: KSEA (SEATTLE/METRO , WA, US) observed 2353 UTC 17 June 2019
Temperature: 22.8°C (73°F)
Dewpoint: 11.1°C (52°F) [RH = 48%]
Pressure (altimeter): 30.14 inches Hg (1020.7 mb)
[Sea-level pressure: 1021.0 mb]
Winds: from the SW (220 degrees) at 6 MPH (5 knots; 2.6 m/s)
Visibility: 10 or more miles (16+ km)
Ceiling: 25000 feet AGL
Clouds: few clouds at 4000 feet AGL
broken clouds at 25000 feet AGL
Weather: no significant weather observed at this time

METAR text: KSEA 172253Z VRB04KT 10SM FEW030 BKN250 22/12 A3014 RMK AO2 SLP212 T02170117
Conditions at: KSEA (SEATTLE/METRO , WA, US) observed 2253 UTC 17 June 2019
Temperature: 21.7°C (71°F)
Dewpoint: 11.7°C (53°F) [RH = 53%]
Pressure (altimeter): 30.14 inches Hg (1020.7 mb)
[Sea-level pressure: 1021.2 mb]
Winds: variable direction winds at 5 MPH (4 knots; 2.1 m/s)
Visibility: 10 or more miles (16+ km)
Ceiling: 25000 feet AGL
Clouds: few clouds at 3000 feet AGL
broken clouds at 25000 feet AGL
Weather: no significant weather observed at this time

METAR text: KSEA 172153Z VRB03KT 10SM FEW030 BKN250 21/12 A3015 RMK AO2 SLP215 T02060122
Conditions at: KSEA (SEATTLE/METRO , WA, US) observed 2153 UTC 17 June 2019
Temperature: 20.6°C (69°F)
Dewpoint: 12.2°C (54°F) [RH = 59%]
Pressure (altimeter): 30.15 inches Hg (1021.1 mb)
[Sea-level pressure: 1021.5 mb]
Winds: variable direction winds at 3 MPH (3 knots; 1.5 m/s)
Visibility: 10 or more miles (16+ km)
Ceiling: 25000 feet AGL
Clouds: few clouds at 3000 feet AGL
broken clouds at 25000 feet AGL
Weather: no significant weather observed at this time

METAR text: KSEA 172053Z 23006KT 10SM FEW020 BKN250 19/12 A3016 RMK AO2 SLP219 T01940117 50000
Conditions at: KSEA (SEATTLE/METRO , WA, US) observed 2053 UTC 17 June 2019
Temperature: 19.4°C (67°F)
Dewpoint: 11.7°C (53°F) [RH = 61%]
Pressure (altimeter): 30.16 inches Hg (1021.4 mb)
[Sea-level pressure: 1021.9 mb]
Winds: from the SW (230 degrees) at 7 MPH (6 knots; 3.1 m/s)
Visibility: 10 or more miles (16+ km)
Ceiling: 25000 feet AGL
Clouds: few clouds at 2000 feet AGL
broken clouds at 25000 feet AGL
Weather: no significant weather observed at this time

METAR text: KSEA 172018Z 17005KT 10SM SCT014 BKN250 18/12 A3017 RMK AO2 T01830117
Conditions at: KSEA (SEATTLE/METRO , WA, US) observed 2018 UTC 17 June 2019
Temperature: 18.3°C (65°F)
Dewpoint: 11.7°C (53°F) [RH = 65%]
Pressure (altimeter): 30.17 inches Hg (1021.8 mb)
Winds: from the S (170 degrees) at 6 MPH (5 knots; 2.6 m/s)
Visibility: 10 or more miles (16+ km)
Ceiling: 25000 feet AGL
Clouds: scattered clouds at 1400 feet AGL
broken clouds at 25000 feet AGL
Weather: no significant weather observed at this time

METAR text: KSEA 171953Z 27005KT 10SM BKN013 BKN250 17/12 A3017 RMK AO2 SLP223 T01720117
Conditions at: KSEA (SEATTLE/METRO , WA, US) observed 1953 UTC 17 June 2019
Temperature: 17.2°C (63°F)
Dewpoint: 11.7°C (53°F) [RH = 70%]
Pressure (altimeter): 30.17 inches Hg (1021.8 mb)
[Sea-level pressure: 1022.3 mb]
Winds: from the W (270 degrees) at 6 MPH (5 knots; 2.6 m/s)
Visibility: 10 or more miles (16+ km)
Ceiling: 1300 feet AGL
Clouds: broken clouds at 1300 feet AGL
broken clouds at 25000 feet AGL
Weather: no significant weather observed at this time

METAR text: KSEA 171853Z VRB03KT 10SM OVC010 16/12 A3017 RMK AO2 SLP222 T01610117
Conditions at: KSEA (SEATTLE/METRO , WA, US) observed 1853 UTC 17 June 2019
Temperature: 16.1°C (61°F)
Dewpoint: 11.7°C (53°F) [RH = 75%]
Pressure (altimeter): 30.17 inches Hg (1021.8 mb)
[Sea-level pressure: 1022.2 mb]
Winds: variable direction winds at 3 MPH (3 knots; 1.5 m/s)
Visibility: 10 or more miles (16+ km)
Ceiling: 1000 feet AGL
Clouds: overcast cloud deck at 1000 feet AGL
Weather: no significant weather observed at this time

METAR text: KSEA 171802Z 22006KT 10SM OVC010 16/11 A3016 RMK AO2 T01610111
Conditions at: KSEA (SEATTLE/METRO , WA, US) observed 1802 UTC 17 June 2019
Temperature: 16.1°C (61°F)
Dewpoint: 11.1°C (52°F) [RH = 72%]
Pressure (altimeter): 30.16 inches Hg (1021.4 mb)
Winds: from the SW (220 degrees) at 7 MPH (6 knots; 3.1 m/s)
Visibility: 10 or more miles (16+ km)
Ceiling: 1000 feet AGL
Clouds: overcast cloud deck at 1000 feet AGL
Weather: no significant weather observed at this time

METAR text: KSEA 171753Z 22006KT 10SM OVC009 16/11 A3016 RMK AO2 SLP219 T01610111 10161 20133 53008
Conditions at: KSEA (SEATTLE/METRO , WA, US) observed 1753 UTC 17 June 2019
Temperature: 16.1°C (61°F)
Dewpoint: 11.1°C (52°F) [RH = 72%]
Pressure (altimeter): 30.16 inches Hg (1021.4 mb)
[Sea-level pressure: 1021.9 mb]
Winds: from the SW (220 degrees) at 7 MPH (6 knots; 3.1 m/s)
Visibility: 10 or more miles (16+ km)
Ceiling: 900 feet AGL
Clouds: overcast cloud deck at 900 feet AGL
Weather: no significant weather observed at this time

METAR text: KSEA 171653Z 25005KT 3SM HZ OVC005 14/11 A3015 RMK AO2 SLP215 T01440111
Conditions at: KSEA (SEATTLE/METRO , WA, US) observed 1653 UTC 17 June 2019
Temperature: 14.4°C (58°F)
Dewpoint: 11.1°C (52°F) [RH = 81%]
Pressure (altimeter): 30.15 inches Hg (1021.1 mb)
[Sea-level pressure: 1021.5 mb]
Winds: from the WSW (250 degrees) at 6 MPH (5 knots; 2.6 m/s)
Visibility: 3 miles ( 5 km)
Ceiling: 500 feet AGL
Clouds: overcast cloud deck at 500 feet AGL
Weather: HZ  (haze)

METAR text: KSEA 171646Z 25005KT 3SM HZ OVC004 15/12 A3015 RMK AO2 T01500117
Conditions at: KSEA (SEATTLE/METRO , WA, US) observed 1646 UTC 17 June 2019
Temperature: 15.0°C (59°F)
Dewpoint: 11.7°C (53°F) [RH = 81%]
Pressure (altimeter): 30.15 inches Hg (1021.1 mb)
Winds: from the WSW (250 degrees) at 6 MPH (5 knots; 2.6 m/s)
Visibility: 3 miles ( 5 km)
Ceiling: 400 feet AGL
Clouds: overcast cloud deck at 400 feet AGL
Weather: HZ  (haze)

METAR text: KSEA 171553Z 20004KT 2SM BR OVC003 14/12 A3014 RMK AO2 SLP213 T01390117
Conditions at: KSEA (SEATTLE/METRO , WA, US) observed 1553 UTC 17 June 2019
Temperature: 13.9°C (57°F)
Dewpoint: 11.7°C (53°F) [RH = 87%]
Pressure (altimeter): 30.14 inches Hg (1020.7 mb)
[Sea-level pressure: 1021.3 mb]
Winds: from the SSW (200 degrees) at 5 MPH (4 knots; 2.1 m/s)
Visibility: 2.00 miles (3.22 km)
Ceiling: 300 feet AGL
Clouds: overcast cloud deck at 300 feet AGL
Weather: BR  (mist)

METAR text: KSEA 171453Z 21005KT 2SM BR OVC003 13/12 A3014 RMK AO2 SLP210 T01330117 53015
Conditions at: KSEA (SEATTLE/METRO , WA, US) observed 1453 UTC 17 June 2019
Temperature: 13.3°C (56°F)
Dewpoint: 11.7°C (53°F) [RH = 90%]
Pressure (altimeter): 30.14 inches Hg (1020.7 mb)
[Sea-level pressure: 1021.0 mb]
Winds: from the SSW (210 degrees) at 6 MPH (5 knots; 2.6 m/s)
Visibility: 2.00 miles (3.22 km)
Ceiling: 300 feet AGL
Clouds: overcast cloud deck at 300 feet AGL
Weather: BR  (mist)

METAR text: KSEA 171353Z 21005KT 2SM BR OVC003 13/11 A3012 RMK AO2 SLP205 T01330111
Conditions at: KSEA (SEATTLE/METRO , WA, US) observed 1353 UTC 17 June 2019
Temperature: 13.3°C (56°F)
Dewpoint: 11.1°C (52°F) [RH = 87%]
Pressure (altimeter): 30.12 inches Hg (1020.1 mb)
[Sea-level pressure: 1020.5 mb]
Winds: from the SSW (210 degrees) at 6 MPH (5 knots; 2.6 m/s)
Visibility: 2.00 miles (3.22 km)
Ceiling: 300 feet AGL
Clouds: overcast cloud deck at 300 feet AGL
Weather: BR  (mist)

METAR text: KSEA 171330Z 22005KT 2SM BR OVC004 13/11 A3012 RMK AO2 T01330111
Conditions at: KSEA (SEATTLE/METRO , WA, US) observed 1330 UTC 17 June 2019
Temperature: 13.3°C (56°F)
Dewpoint: 11.1°C (52°F) [RH = 87%]
Pressure (altimeter): 30.12 inches Hg (1020.1 mb)
Winds: from the SW (220 degrees) at 6 MPH (5 knots; 2.6 m/s)
Visibility: 2.00 miles (3.22 km)
Ceiling: 400 feet AGL
Clouds: overcast cloud deck at 400 feet AGL
Weather: BR  (mist)

METAR text: KSEA 171253Z 24006KT 10SM OVC004 13/11 A3011 RMK AO2 SLP199 T01330111
Conditions at: KSEA (SEATTLE/METRO , WA, US) observed 1253 UTC 17 June 2019
Temperature: 13.3°C (56°F)
Dewpoint: 11.1°C (52°F) [RH = 87%]
Pressure (altimeter): 30.11 inches Hg (1019.7 mb)
[Sea-level pressure: 1019.9 mb]
Winds: from the WSW (240 degrees) at 7 MPH (6 knots; 3.1 m/s)
Visibility: 10 or more miles (16+ km)
Ceiling: 400 feet AGL
Clouds: overcast cloud deck at 400 feet AGL
Weather: no significant weather observed at this time

METAR text: KSEA 171247Z 24006KT 10SM OVC004 13/11 A3010 RMK AO2
Conditions at: KSEA (SEATTLE/METRO , WA, US) observed 1247 UTC 17 June 2019
Temperature: 13.0°C (55°F)
Dewpoint: 11.0°C (52°F) [RH = 88%]
Pressure (altimeter): 30.10 inches Hg (1019.4 mb)
Winds: from the WSW (240 degrees) at 7 MPH (6 knots; 3.1 m/s)
Visibility: 10 or more miles (16+ km)
Ceiling: 400 feet AGL
Clouds: overcast cloud deck at 400 feet AGL
Weather: no significant weather observed at this time

METAR text: KSEA 171153Z 21006KT 10SM BKN008 13/11 A3010 RMK AO2 SLP196 T01330111 10172 20133 51009
Conditions at: KSEA (SEATTLE/METRO , WA, US) observed 1153 UTC 17 June 2019
Temperature: 13.3°C (56°F)
Dewpoint: 11.1°C (52°F) [RH = 87%]
Pressure (altimeter): 30.10 inches Hg (1019.4 mb)
[Sea-level pressure: 1019.6 mb]
Winds: from the SSW (210 degrees) at 7 MPH (6 knots; 3.1 m/s)
Visibility: 10 or more miles (16+ km)
Ceiling: 800 feet AGL
Clouds: broken clouds at 800 feet AGL
Weather: no significant weather observed at this time

METAR text: KSEA 171136Z 21006KT 10SM BKN008 13/11 A3010 RMK AO2 T01330111
Conditions at: KSEA (SEATTLE/METRO , WA, US) observed 1136 UTC 17 June 2019
Temperature: 13.3°C (56°F)
Dewpoint: 11.1°C (52°F) [RH = 87%]
Pressure (altimeter): 30.10 inches Hg (1019.4 mb)
Winds: from the SSW (210 degrees) at 7 MPH (6 knots; 3.1 m/s)
Visibility: 10 or more miles (16+ km)
Ceiling: 800 feet AGL
Clouds: broken clouds at 800 feet AGL
Weather: no significant weather observed at this time

METAR text: KSEA 171114Z 19005KT 10SM FEW008 SCT038 SCT200 13/11 A3009 RMK AO2 T01330111
Conditions at: KSEA (SEATTLE/METRO , WA, US) observed 1114 UTC 17 June 2019
Temperature: 13.3°C (56°F)
Dewpoint: 11.1°C (52°F) [RH = 87%]
Pressure (altimeter): 30.09 inches Hg (1019.0 mb)
Winds: from the S (190 degrees) at 6 MPH (5 knots; 2.6 m/s)
Visibility: 10 or more miles (16+ km)
Ceiling: at least 12,000 feet AGL
Clouds: few clouds at 800 feet AGL
scattered clouds at 3800 feet AGL
scattered clouds at 20000 feet AGL
Weather: no significant weather observed at this time

METAR text: KSEA 171053Z 20004KT 10SM FEW010 SCT038 SCT200 13/11 A3009 RMK AO2 SLP194 T01330111
Conditions at: KSEA (SEATTLE/METRO , WA, US) observed 1053 UTC 17 June 2019
Temperature: 13.3°C (56°F)
Dewpoint: 11.1°C (52°F) [RH = 87%]
Pressure (altimeter): 30.09 inches Hg (1019.0 mb)
[Sea-level pressure: 1019.4 mb]
Winds: from the SSW (200 degrees) at 5 MPH (4 knots; 2.1 m/s)
Visibility: 10 or more miles (16+ km)
Ceiling: at least 12,000 feet AGL
Clouds: few clouds at 1000 feet AGL
scattered clouds at 3800 feet AGL
scattered clouds at 20000 feet AGL
Weather: no significant weather observed at this time

METAR text: KSEA 170953Z 21006KT 10SM BKN037 14/12 A3007 RMK AO2 SLP188 T01440117
Conditions at: KSEA (SEATTLE/METRO , WA, US) observed 0953 UTC 17 June 2019
Temperature: 14.4°C (58°F)
Dewpoint: 11.7°C (53°F) [RH = 84%]
Pressure (altimeter): 30.07 inches Hg (1018.4 mb)
[Sea-level pressure: 1018.8 mb]
Winds: from the SSW (210 degrees) at 7 MPH (6 knots; 3.1 m/s)
Visibility: 10 or more miles (16+ km)
Ceiling: 3700 feet AGL
Clouds: broken clouds at 3700 feet AGL
Weather: no significant weather observed at this time

METAR text: KSEA 170853Z 22004KT 10SM SCT036 14/12 A3007 RMK AO2 SLP187 T01440117 53010
Conditions at: KSEA (SEATTLE/METRO , WA, US) observed 0853 UTC 17 June 2019
Temperature: 14.4°C (58°F)
Dewpoint: 11.7°C (53°F) [RH = 84%]
Pressure (altimeter): 30.07 inches Hg (1018.4 mb)
[Sea-level pressure: 1018.7 mb]
Winds: from the SW (220 degrees) at 5 MPH (4 knots; 2.1 m/s)
Visibility: 10 or more miles (16+ km)
Ceiling: at least 12,000 feet AGL
Clouds: scattered clouds at 3600 feet AGL
Weather: no significant weather observed at this time

METAR text: KSEA 170753Z 28003KT 10SM FEW150 SCT250 15/12 A3006 RMK AO2 SLP183 T01500117 402500117
Conditions at: KSEA (SEATTLE/METRO , WA, US) observed 0753 UTC 17 June 2019
Temperature: 15.0°C (59°F)
Dewpoint: 11.7°C (53°F) [RH = 81%]
Pressure (altimeter): 30.06 inches Hg (1018.0 mb)
[Sea-level pressure: 1018.3 mb]
Winds: from the W (280 degrees) at 3 MPH (3 knots; 1.5 m/s)
Visibility: 10 or more miles (16+ km)
Ceiling: at least 12,000 feet AGL
Clouds: few clouds at 15000 feet AGL
scattered clouds at 25000 feet AGL
Weather: no significant weather observed at this time

METAR text: KSEA 170653Z 00000KT 10SM FEW150 SCT250 16/12 A3004 RMK AO2 SLP179 T01610117
Conditions at: KSEA (SEATTLE/METRO , WA, US) observed 0653 UTC 17 June 2019
Temperature: 16.1°C (61°F)
Dewpoint: 11.7°C (53°F) [RH = 75%]
Pressure (altimeter): 30.04 inches Hg (1017.4 mb)
[Sea-level pressure: 1017.9 mb]
Winds: calm
Visibility: 10 or more miles (16+ km)
Ceiling: at least 12,000 feet AGL
Clouds: few clouds at 15000 feet AGL
scattered clouds at 25000 feet AGL
Weather: no significant weather observed at this time

METAR text: KSEA 170553Z 00000KT 10SM FEW150 SCT250 17/12 A3004 RMK AO2 SLP177 T01720117 10250 20172 51007
Conditions at: KSEA (SEATTLE/METRO , WA, US) observed 0553 UTC 17 June 2019
Temperature: 17.2°C (63°F)
Dewpoint: 11.7°C (53°F) [RH = 70%]
Pressure (altimeter): 30.04 inches Hg (1017.4 mb)
[Sea-level pressure: 1017.7 mb]
Winds: calm
Visibility: 10 or more miles (16+ km)
Ceiling: at least 12,000 feet AGL
Clouds: few clouds at 15000 feet AGL
scattered clouds at 25000 feet AGL
Weather: no significant weather observed at this time

METAR text: KSEA 170453Z 27003KT 10SM FEW045 FEW150 SCT250 20/12 A3003 RMK AO2 SLP175 T02000117
Conditions at: KSEA (SEATTLE/METRO , WA, US) observed 0453 UTC 17 June 2019
Temperature: 20.0°C (68°F)
Dewpoint: 11.7°C (53°F) [RH = 59%]
Pressure (altimeter): 30.03 inches Hg (1017.0 mb)
[Sea-level pressure: 1017.5 mb]
Winds: from the W (270 degrees) at 3 MPH (3 knots; 1.5 m/s)
Visibility: 10 or more miles (16+ km)
Ceiling: at least 12,000 feet AGL
Clouds: few clouds at 4500 feet AGL
few clouds at 15000 feet AGL
scattered clouds at 25000 feet AGL
Weather: no significant weather observed at this time

METAR text: KSEA 170353Z 29005KT 10SM FEW045 FEW150 SCT250 21/12 A3002 RMK AO2 SLP172 T02060122
Conditions at: KSEA (SEATTLE/METRO , WA, US) observed 0353 UTC 17 June 2019
Temperature: 20.6°C (69°F)
Dewpoint: 12.2°C (54°F) [RH = 59%]
Pressure (altimeter): 30.02 inches Hg (1016.7 mb)
[Sea-level pressure: 1017.2 mb]
Winds: from the WNW (290 degrees) at 6 MPH (5 knots; 2.6 m/s)
Visibility: 10 or more miles (16+ km)
Ceiling: at least 12,000 feet AGL
Clouds: few clouds at 4500 feet AGL
few clouds at 15000 feet AGL
scattered clouds at 25000 feet AGL
Weather: no significant weather observed at this time

METAR text: KSEA 170253Z 30003KT 10SM FEW045 SCT250 23/12 A3002 RMK AO2 SLP168 T02280122 55006
Conditions at: KSEA (SEATTLE/METRO , WA, US) observed 0253 UTC 17 June 2019
Temperature: 22.8°C (73°F)
Dewpoint: 12.2°C (54°F) [RH = 51%]
Pressure (altimeter): 30.02 inches Hg (1016.7 mb)
[Sea-level pressure: 1016.8 mb]
Winds: from the WNW (300 degrees) at 3 MPH (3 knots; 1.5 m/s)
Visibility: 10 or more miles (16+ km)
Ceiling: at least 12,000 feet AGL
Clouds: few clouds at 4500 feet AGL
scattered clouds at 25000 feet AGL
Weather: no significant weather observed at this time

METAR text: KSEA 170153Z 30006KT 10SM FEW045 SCT250 24/12 A3001 RMK AO2 SLP168 T02440122
Conditions at: KSEA (SEATTLE/METRO , WA, US) observed 0153 UTC 17 June 2019
Temperature: 24.4°C (76°F)
Dewpoint: 12.2°C (54°F) [RH = 47%]
Pressure (altimeter): 30.01 inches Hg (1016.3 mb)
[Sea-level pressure: 1016.8 mb]
Winds: from the WNW (300 degrees) at 7 MPH (6 knots; 3.1 m/s)
Visibility: 10 or more miles (16+ km)
Ceiling: at least 12,000 feet AGL
Clouds: few clouds at 4500 feet AGL
scattered clouds at 25000 feet AGL
Weather: no significant weather observed at this time

METAR text: KSEA 170053Z 26004KT 10SM FEW045 BKN250 24/12 A3002 RMK AO2 SLP171 T02390117
Conditions at: KSEA (SEATTLE/METRO , WA, US) observed 0053 UTC 17 June 2019
Temperature: 23.9°C (75°F)
Dewpoint: 11.7°C (53°F) [RH = 46%]
Pressure (altimeter): 30.02 inches Hg (1016.7 mb)
[Sea-level pressure: 1017.1 mb]
Winds: from the W (260 degrees) at 5 MPH (4 knots; 2.1 m/s)
Visibility: 10 or more miles (16+ km)
Ceiling: 25000 feet AGL
Clouds: few clouds at 4500 feet AGL
broken clouds at 25000 feet AGL
Weather: no significant weather observed at this time

Forecast for: KSEA (SEATTLE/METRO , WA, US)
Text: KSEA 181139Z 1812/1918 22006KT P6SM SCT004 BKN008 OVC012
Forecast period: 1200 to 1800 UTC 18 June 2019
Forecast type: FROM: standard forecast or significant change
Winds: from the SW (220 degrees) at 7 MPH (6 knots; 3.1 m/s)
Visibility: 6 or more miles 10+ km)
Ceiling: 800 feet AGL
Clouds: scattered clouds at 400 feet AGL
broken clouds at 800 feet AGL
overcast cloud deck at 1200 feet AGL
Weather: no significant weather forecast for this period
Text: FM181800 22006KT P6SM OVC012
Forecast period: 1800 to 2000 UTC 18 June 2019
Forecast type: FROM: standard forecast or significant change
Winds: from the SW (220 degrees) at 7 MPH (6 knots; 3.1 m/s)
Visibility: 6 or more miles 10+ km)
Ceiling: 1200 feet AGL
Clouds: overcast cloud deck at 1200 feet AGL
Weather: no significant weather forecast for this period
Text: FM182000 24006KT P6SM SCT015 BKN025
Forecast period: 2000 to 2200 UTC 18 June 2019
Forecast type: FROM: standard forecast or significant change
Winds: from the WSW (240 degrees) at 7 MPH (6 knots; 3.1 m/s)
Visibility: 6 or more miles 10+ km)
Ceiling: 2500 feet AGL
Clouds: scattered clouds at 1500 feet AGL
broken clouds at 2500 feet AGL
Weather: no significant weather forecast for this period
Text: FM182200 25006KT P6SM SCT025 BKN035 BKN050
Forecast period: 2200 UTC 18 June 2019 to 0900 UTC 19 June 2019
Forecast type: FROM: standard forecast or significant change
Winds: from the WSW (250 degrees) at 7 MPH (6 knots; 3.1 m/s)
Visibility: 6 or more miles 10+ km)
Ceiling: 3500 feet AGL
Clouds: scattered clouds at 2500 feet AGL
broken clouds at 3500 feet AGL
broken clouds at 5000 feet AGL
Weather: no significant weather forecast for this period
Text: FM190900 19012KT P6SM OVC022
Forecast period: 0900 to 1800 UTC 19 June 2019
Forecast type: FROM: standard forecast or significant change
Winds: from the S (190 degrees) at 14 MPH (12 knots; 6.2 m/s)
Visibility: 6 or more miles 10+ km)
Ceiling: 2200 feet AGL
Clouds: overcast cloud deck at 2200 feet AGL
Weather: no significant weather forecast for this period